sensor_id;sensor_type;location;lat;lon;timestamp;P1;durP1;ratioP1;P2;durP2;ratioP2
48241;SDS011;34041;51.812;4.622;2023-07-22T00:01:24;12.13;;;7.90;;
48241;SDS011;34041;51.812;4.622;2023-07-22T00:04:25;12.43;;;7.93;;
48241;SDS011;34041;51.812;4.622;2023-07-22T00:07:25;12.18;;;8.27;;
48241;SDS011;34041;51.812;4.622;2023-07-22T00:10:26;9.00;;;7.28;;
48241;SDS011;34041;51.812;4.622;2023-07-22T00:13:26;11.37;;;7.67;;
48241;SDS011;34041;51.812;4.622;2023-07-22T00:16:27;11.47;;;7.27;;
48241;SDS011;34041;51.812;4.622;2023-07-22T00:19:29;12.35;;;7.15;;
48241;SDS011;34041;51.812;4.622;2023-07-22T00:22:29;14.17;;;7.57;;
48241;SDS011;34041;51.812;4.622;2023-07-22T00:25:29;14.27;;;7.73;;
48241;SDS011;34041;51.812;4.622;2023-07-22T00:28:30;8.47;;;6.20;;
48241;SDS011;34041;51.812;4.622;2023-07-22T00:31:30;11.00;;;7.17;;
48241;SDS011;34041;51.812;4.622;2023-07-22T00:34:30;10.23;;;6.63;;
48241;SDS011;34041;51.812;4.622;2023-07-22T00:37:30;7.97;;;6.33;;
48241;SDS011;34041;51.812;4.622;2023-07-22T00:40:31;8.15;;;6.47;;
48241;SDS011;34041;51.812;4.622;2023-07-22T00:43:32;8.57;;;6.22;;
48241;SDS011;34041;51.812;4.622;2023-07-22T00:46:32;9.52;;;6.93;;
48241;SDS011;34041;51.812;4.622;2023-07-22T00:49:32;8.83;;;6.30;;
48241;SDS011;34041;51.812;4.622;2023-07-22T00:52:33;8.65;;;5.30;;
48241;SDS011;34041;51.812;4.622;2023-07-22T00:55:33;8.95;;;5.78;;
48241;SDS011;34041;51.812;4.622;2023-07-22T00:58:35;7.57;;;5.90;;
48241;SDS011;34041;51.812;4.622;2023-07-22T01:01:35;11.40;;;6.53;;
48241;SDS011;34041;51.812;4.622;2023-07-22T01:04:36;7.47;;;5.53;;
48241;SDS011;34041;51.812;4.622;2023-07-22T01:07:36;7.80;;;5.10;;
48241;SDS011;34041;51.812;4.622;2023-07-22T01:10:39;8.60;;;5.65;;
48241;SDS011;34041;51.812;4.622;2023-07-22T01:13:39;7.65;;;5.60;;
48241;SDS011;34041;51.812;4.622;2023-07-22T01:16:39;8.15;;;4.85;;
48241;SDS011;34041;51.812;4.622;2023-07-22T01:19:39;8.13;;;5.77;;
48241;SDS011;34041;51.812;4.622;2023-07-22T01:22:40;8.45;;;5.65;;
48241;SDS011;34041;51.812;4.622;2023-07-22T01:25:42;6.78;;;5.28;;
48241;SDS011;34041;51.812;4.622;2023-07-22T01:28:43;11.85;;;5.72;;
48241;SDS011;34041;51.812;4.622;2023-07-22T01:31:45;5.75;;;4.50;;
48241;SDS011;34041;51.812;4.622;2023-07-22T01:34:45;5.63;;;4.32;;
48241;SDS011;34041;51.812;4.622;2023-07-22T01:37:46;10.93;;;4.80;;
48241;SDS011;34041;51.812;4.622;2023-07-22T01:40:46;6.53;;;3.80;;
48241;SDS011;34041;51.812;4.622;2023-07-22T01:43:46;5.40;;;4.47;;
48241;SDS011;34041;51.812;4.622;2023-07-22T01:46:46;6.37;;;4.97;;
48241;SDS011;34041;51.812;4.622;2023-07-22T01:49:46;5.60;;;4.10;;
48241;SDS011;34041;51.812;4.622;2023-07-22T01:52:47;10.93;;;4.63;;
48241;SDS011;34041;51.812;4.622;2023-07-22T01:55:47;5.93;;;3.65;;
48241;SDS011;34041;51.812;4.622;2023-07-22T01:58:47;7.55;;;5.40;;
48241;SDS011;34041;51.812;4.622;2023-07-22T02:01:47;8.13;;;5.67;;
48241;SDS011;34041;51.812;4.622;2023-07-22T02:04:48;7.87;;;5.00;;
48241;SDS011;34041;51.812;4.622;2023-07-22T02:07:48;8.10;;;5.73;;
48241;SDS011;34041;51.812;4.622;2023-07-22T02:10:48;9.17;;;6.13;;
48241;SDS011;34041;51.812;4.622;2023-07-22T02:13:48;7.13;;;5.72;;
48241;SDS011;34041;51.812;4.622;2023-07-22T02:16:49;9.80;;;6.40;;
48241;SDS011;34041;51.812;4.622;2023-07-22T02:19:49;10.10;;;7.20;;
48241;SDS011;34041;51.812;4.622;2023-07-22T02:22:49;10.25;;;7.15;;
48241;SDS011;34041;51.812;4.622;2023-07-22T02:25:53;9.48;;;7.20;;
48241;SDS011;34041;51.812;4.622;2023-07-22T02:28:54;10.73;;;7.33;;
48241;SDS011;34041;51.812;4.622;2023-07-22T02:31:54;15.85;;;9.15;;
48241;SDS011;34041;51.812;4.622;2023-07-22T02:34:55;12.48;;;9.00;;
48241;SDS011;34041;51.812;4.622;2023-07-22T02:37:55;12.85;;;9.23;;
48241;SDS011;34041;51.812;4.622;2023-07-22T02:41:00;12.90;;;8.67;;
48241;SDS011;34041;51.812;4.622;2023-07-22T02:44:01;16.58;;;10.02;;
48241;SDS011;34041;51.812;4.622;2023-07-22T02:47:03;15.50;;;11.00;;
48241;SDS011;34041;51.812;4.622;2023-07-22T02:50:03;20.08;;;12.05;;
48241;SDS011;34041;51.812;4.622;2023-07-22T02:53:04;17.90;;;12.63;;
48241;SDS011;34041;51.812;4.622;2023-07-22T02:56:05;19.73;;;13.10;;
48241;SDS011;34041;51.812;4.622;2023-07-22T02:59:09;30.77;;;14.18;;
48241;SDS011;34041;51.812;4.622;2023-07-22T03:02:09;23.27;;;14.20;;
48241;SDS011;34041;51.812;4.622;2023-07-22T03:05:14;20.77;;;14.07;;
48241;SDS011;34041;51.812;4.622;2023-07-22T03:08:14;22.23;;;14.17;;
48241;SDS011;34041;51.812;4.622;2023-07-22T03:11:14;20.33;;;13.68;;
48241;SDS011;34041;51.812;4.622;2023-07-22T03:14:15;28.25;;;16.17;;
48241;SDS011;34041;51.812;4.622;2023-07-22T03:17:15;21.23;;;14.70;;
48241;SDS011;34041;51.812;4.622;2023-07-22T03:20:16;22.58;;;14.93;;
48241;SDS011;34041;51.812;4.622;2023-07-22T03:23:18;22.23;;;13.63;;
48241;SDS011;34041;51.812;4.622;2023-07-22T03:26:19;25.27;;;16.45;;
48241;SDS011;34041;51.812;4.622;2023-07-22T03:29:19;24.08;;;14.95;;
48241;SDS011;34041;51.812;4.622;2023-07-22T03:32:20;23.73;;;17.17;;
48241;SDS011;34041;51.812;4.622;2023-07-22T03:35:20;26.00;;;16.67;;
48241;SDS011;34041;51.812;4.622;2023-07-22T03:38:20;22.57;;;15.90;;
48241;SDS011;34041;51.812;4.622;2023-07-22T03:41:21;29.25;;;16.35;;
48241;SDS011;34041;51.812;4.622;2023-07-22T03:44:21;20.43;;;15.87;;
48241;SDS011;34041;51.812;4.622;2023-07-22T03:47:21;21.60;;;14.57;;
48241;SDS011;34041;51.812;4.622;2023-07-22T03:50:21;22.53;;;15.70;;
48241;SDS011;34041;51.812;4.622;2023-07-22T03:53:21;23.63;;;14.88;;
48241;SDS011;34041;51.812;4.622;2023-07-22T03:56:22;23.40;;;15.53;;
48241;SDS011;34041;51.812;4.622;2023-07-22T03:59:23;22.25;;;16.13;;
48241;SDS011;34041;51.812;4.622;2023-07-22T04:02:24;22.67;;;16.00;;
48241;SDS011;34041;51.812;4.622;2023-07-22T04:05:24;22.35;;;16.27;;
48241;SDS011;34041;51.812;4.622;2023-07-22T04:08:24;24.88;;;14.90;;
48241;SDS011;34041;51.812;4.622;2023-07-22T04:11:25;23.52;;;15.80;;
48241;SDS011;34041;51.812;4.622;2023-07-22T04:14:25;22.80;;;15.30;;
48241;SDS011;34041;51.812;4.622;2023-07-22T04:17:25;23.27;;;17.67;;
48241;SDS011;34041;51.812;4.622;2023-07-22T04:20:25;27.23;;;17.30;;
48241;SDS011;34041;51.812;4.622;2023-07-22T04:23:26;23.35;;;17.13;;
48241;SDS011;34041;51.812;4.622;2023-07-22T04:26:26;23.77;;;15.38;;
48241;SDS011;34041;51.812;4.622;2023-07-22T04:29:26;23.00;;;14.33;;
48241;SDS011;34041;51.812;4.622;2023-07-22T04:32:27;23.53;;;15.87;;
48241;SDS011;34041;51.812;4.622;2023-07-22T04:35:30;31.63;;;17.73;;
48241;SDS011;34041;51.812;4.622;2023-07-22T04:38:31;19.95;;;16.33;;
48241;SDS011;34041;51.812;4.622;2023-07-22T04:41:31;23.48;;;16.52;;
48241;SDS011;34041;51.812;4.622;2023-07-22T04:44:31;25.00;;;15.67;;
48241;SDS011;34041;51.812;4.622;2023-07-22T04:47:31;27.03;;;17.47;;
48241;SDS011;34041;51.812;4.622;2023-07-22T04:50:32;27.53;;;18.43;;
48241;SDS011;34041;51.812;4.622;2023-07-22T04:53:32;22.58;;;16.63;;
48241;SDS011;34041;51.812;4.622;2023-07-22T04:56:33;26.73;;;17.30;;
48241;SDS011;34041;51.812;4.622;2023-07-22T04:59:33;25.98;;;16.05;;
48241;SDS011;34041;51.812;4.622;2023-07-22T05:02:33;28.80;;;17.13;;
48241;SDS011;34041;51.812;4.622;2023-07-22T05:05:34;23.10;;;16.57;;
48241;SDS011;34041;51.812;4.622;2023-07-22T05:08:34;24.63;;;17.17;;
48241;SDS011;34041;51.812;4.622;2023-07-22T05:11:34;24.88;;;16.35;;
48241;SDS011;34041;51.812;4.622;2023-07-22T05:14:35;23.95;;;15.93;;
48241;SDS011;34041;51.812;4.622;2023-07-22T05:17:35;23.23;;;16.00;;
48241;SDS011;34041;51.812;4.622;2023-07-22T05:20:35;25.25;;;17.10;;
48241;SDS011;34041;51.812;4.622;2023-07-22T05:23:37;27.88;;;16.58;;
48241;SDS011;34041;51.812;4.622;2023-07-22T05:26:37;21.37;;;15.50;;
48241;SDS011;34041;51.812;4.622;2023-07-22T05:29:37;24.07;;;16.37;;
48241;SDS011;34041;51.812;4.622;2023-07-22T05:32:38;26.60;;;17.37;;
48241;SDS011;34041;51.812;4.622;2023-07-22T05:35:38;26.08;;;16.90;;
48241;SDS011;34041;51.812;4.622;2023-07-22T05:38:38;30.33;;;16.30;;
48241;SDS011;34041;51.812;4.622;2023-07-22T05:41:38;28.87;;;16.33;;
48241;SDS011;34041;51.812;4.622;2023-07-22T05:44:39;25.73;;;16.80;;
48241;SDS011;34041;51.812;4.622;2023-07-22T05:47:39;31.00;;;16.57;;
48241;SDS011;34041;51.812;4.622;2023-07-22T05:50:39;23.67;;;16.70;;
48241;SDS011;34041;51.812;4.622;2023-07-22T05:53:39;27.77;;;15.33;;
48241;SDS011;34041;51.812;4.622;2023-07-22T05:56:39;24.02;;;16.30;;
48241;SDS011;34041;51.812;4.622;2023-07-22T05:59:41;23.55;;;16.52;;
48241;SDS011;34041;51.812;4.622;2023-07-22T06:02:41;23.23;;;16.45;;
48241;SDS011;34041;51.812;4.622;2023-07-22T06:05:41;24.25;;;15.77;;
48241;SDS011;34041;51.812;4.622;2023-07-22T06:08:42;25.33;;;15.77;;
48241;SDS011;34041;51.812;4.622;2023-07-22T06:11:42;32.83;;;18.75;;
48241;SDS011;34041;51.812;4.622;2023-07-22T06:14:42;24.93;;;15.10;;
48241;SDS011;34041;51.812;4.622;2023-07-22T06:17:42;21.33;;;15.73;;
48241;SDS011;34041;51.812;4.622;2023-07-22T06:20:43;21.05;;;14.57;;
48241;SDS011;34041;51.812;4.622;2023-07-22T06:23:43;22.67;;;16.00;;
48241;SDS011;34041;51.812;4.622;2023-07-22T06:26:43;22.27;;;14.83;;
48241;SDS011;34041;51.812;4.622;2023-07-22T06:29:44;26.97;;;16.63;;
48241;SDS011;34041;51.812;4.622;2023-07-22T06:32:44;29.33;;;16.57;;
48241;SDS011;34041;51.812;4.622;2023-07-22T06:35:44;25.40;;;15.98;;
48241;SDS011;34041;51.812;4.622;2023-07-22T06:38:44;20.80;;;15.17;;
48241;SDS011;34041;51.812;4.622;2023-07-22T06:41:44;19.83;;;14.77;;
48241;SDS011;34041;51.812;4.622;2023-07-22T06:44:45;19.93;;;15.40;;
48241;SDS011;34041;51.812;4.622;2023-07-22T06:47:45;21.30;;;14.10;;
48241;SDS011;34041;51.812;4.622;2023-07-22T06:50:47;17.83;;;13.30;;
48241;SDS011;34041;51.812;4.622;2023-07-22T06:53:47;17.17;;;13.27;;
48241;SDS011;34041;51.812;4.622;2023-07-22T06:56:48;21.70;;;12.90;;
48241;SDS011;34041;51.812;4.622;2023-07-22T06:59:48;21.23;;;13.00;;
48241;SDS011;34041;51.812;4.622;2023-07-22T07:02:50;25.70;;;13.95;;
48241;SDS011;34041;51.812;4.622;2023-07-22T07:05:52;17.88;;;12.55;;
48241;SDS011;34041;51.812;4.622;2023-07-22T07:08:52;19.75;;;13.63;;
48241;SDS011;34041;51.812;4.622;2023-07-22T07:11:52;21.40;;;13.57;;
48241;SDS011;34041;51.812;4.622;2023-07-22T07:14:53;18.67;;;12.35;;
48241;SDS011;34041;51.812;4.622;2023-07-22T07:17:53;26.48;;;13.73;;
48241;SDS011;34041;51.812;4.622;2023-07-22T07:20:53;19.47;;;13.30;;
48241;SDS011;34041;51.812;4.622;2023-07-22T07:23:54;19.13;;;12.70;;
48241;SDS011;34041;51.812;4.622;2023-07-22T07:26:54;20.50;;;13.63;;
48241;SDS011;34041;51.812;4.622;2023-07-22T07:29:54;23.60;;;12.37;;
48241;SDS011;34041;51.812;4.622;2023-07-22T07:32:54;17.70;;;12.50;;
48241;SDS011;34041;51.812;4.622;2023-07-22T07:35:55;20.10;;;12.63;;
48241;SDS011;34041;51.812;4.622;2023-07-22T07:38:55;18.67;;;12.57;;
48241;SDS011;34041;51.812;4.622;2023-07-22T07:41:55;19.42;;;12.50;;
48241;SDS011;34041;51.812;4.622;2023-07-22T07:44:55;19.13;;;11.97;;
48241;SDS011;34041;51.812;4.622;2023-07-22T07:47:55;22.53;;;11.10;;
48241;SDS011;34041;51.812;4.622;2023-07-22T07:50:56;15.63;;;9.27;;
48241;SDS011;34041;51.812;4.622;2023-07-22T07:53:56;17.50;;;9.30;;
48241;SDS011;34041;51.812;4.622;2023-07-22T07:56:58;17.33;;;8.80;;
48241;SDS011;34041;51.812;4.622;2023-07-22T07:59:58;19.10;;;9.70;;
48241;SDS011;34041;51.812;4.622;2023-07-22T08:02:58;17.02;;;8.98;;
48241;SDS011;34041;51.812;4.622;2023-07-22T08:05:59;15.60;;;9.73;;
48241;SDS011;34041;51.812;4.622;2023-07-22T08:08:59;13.50;;;9.33;;
48241;SDS011;34041;51.812;4.622;2023-07-22T08:12:00;14.73;;;9.60;;
48241;SDS011;34041;51.812;4.622;2023-07-22T08:15:00;11.93;;;8.82;;
48241;SDS011;34041;51.812;4.622;2023-07-22T08:18:01;18.20;;;9.57;;
48241;SDS011;34041;51.812;4.622;2023-07-22T08:21:02;16.03;;;10.87;;
48241;SDS011;34041;51.812;4.622;2023-07-22T08:24:03;14.25;;;9.32;;
48241;SDS011;34041;51.812;4.622;2023-07-22T08:27:03;14.85;;;9.18;;
48241;SDS011;34041;51.812;4.622;2023-07-22T08:30:03;16.13;;;9.70;;
48241;SDS011;34041;51.812;4.622;2023-07-22T08:33:04;16.92;;;11.45;;
48241;SDS011;34041;51.812;4.622;2023-07-22T08:36:04;18.17;;;9.68;;
48241;SDS011;34041;51.812;4.622;2023-07-22T08:39:05;11.75;;;8.23;;
48241;SDS011;34041;51.812;4.622;2023-07-22T08:42:05;18.02;;;9.10;;
48241;SDS011;34041;51.812;4.622;2023-07-22T08:45:09;11.05;;;8.25;;
48241;SDS011;34041;51.812;4.622;2023-07-22T08:48:09;13.30;;;8.10;;
48241;SDS011;34041;51.812;4.622;2023-07-22T08:51:10;12.55;;;7.60;;
48241;SDS011;34041;51.812;4.622;2023-07-22T08:54:12;12.20;;;7.47;;
48241;SDS011;34041;51.812;4.622;2023-07-22T08:57:13;13.57;;;7.00;;
48241;SDS011;34041;51.812;4.622;2023-07-22T09:00:14;14.52;;;7.10;;
48241;SDS011;34041;51.812;4.622;2023-07-22T09:03:14;10.02;;;6.45;;
48241;SDS011;34041;51.812;4.622;2023-07-22T09:06:16;10.55;;;6.20;;
48241;SDS011;34041;51.812;4.622;2023-07-22T09:09:16;13.17;;;5.93;;
48241;SDS011;34041;51.812;4.622;2023-07-22T09:12:17;7.53;;;5.40;;
48241;SDS011;34041;51.812;4.622;2023-07-22T09:15:17;7.13;;;5.30;;
48241;SDS011;34041;51.812;4.622;2023-07-22T09:18:18;9.32;;;4.05;;
48241;SDS011;34041;51.812;4.622;2023-07-22T09:21:18;6.73;;;4.30;;
48241;SDS011;34041;51.812;4.622;2023-07-22T09:24:22;7.15;;;4.70;;
48241;SDS011;34041;51.812;4.622;2023-07-22T09:27:43;8.48;;;5.00;;
48241;SDS011;34041;51.812;4.622;2023-07-22T09:30:43;12.10;;;6.32;;
48241;SDS011;34041;51.812;4.622;2023-07-22T09:33:43;7.28;;;5.60;;
48241;SDS011;34041;51.812;4.622;2023-07-22T09:36:50;6.05;;;5.10;;
48241;SDS011;34041;51.812;4.622;2023-07-22T09:39:50;11.73;;;5.47;;
48241;SDS011;34041;51.812;4.622;2023-07-22T09:42:54;10.65;;;5.03;;
48241;SDS011;34041;51.812;4.622;2023-07-22T09:45:55;9.95;;;5.13;;
48241;SDS011;34041;51.812;4.622;2023-07-22T09:48:55;14.27;;;6.28;;
48241;SDS011;34041;51.812;4.622;2023-07-22T09:51:55;8.37;;;5.80;;
48241;SDS011;34041;51.812;4.622;2023-07-22T09:54:58;9.15;;;5.47;;
48241;SDS011;34041;51.812;4.622;2023-07-22T09:58:02;13.32;;;6.45;;
48241;SDS011;34041;51.812;4.622;2023-07-22T10:01:02;12.60;;;6.25;;
48241;SDS011;34041;51.812;4.622;2023-07-22T10:04:03;7.65;;;4.50;;
48241;SDS011;34041;51.812;4.622;2023-07-22T10:07:04;9.13;;;4.65;;
48241;SDS011;34041;51.812;4.622;2023-07-22T10:10:05;9.85;;;5.15;;
48241;SDS011;34041;51.812;4.622;2023-07-22T10:13:06;9.65;;;5.50;;
48241;SDS011;34041;51.812;4.622;2023-07-22T10:16:07;10.43;;;5.80;;
48241;SDS011;34041;51.812;4.622;2023-07-22T10:19:07;9.43;;;5.78;;
48241;SDS011;34041;51.812;4.622;2023-07-22T10:22:09;7.40;;;5.20;;
48241;SDS011;34041;51.812;4.622;2023-07-22T10:25:11;14.05;;;6.07;;
48241;SDS011;34041;51.812;4.622;2023-07-22T10:28:11;13.13;;;4.93;;
48241;SDS011;34041;51.812;4.622;2023-07-22T10:31:12;9.77;;;5.05;;
48241;SDS011;34041;51.812;4.622;2023-07-22T10:34:13;8.93;;;4.63;;
48241;SDS011;34041;51.812;4.622;2023-07-22T10:37:14;11.35;;;5.03;;
48241;SDS011;34041;51.812;4.622;2023-07-22T10:40:25;7.80;;;4.18;;
48241;SDS011;34041;51.812;4.622;2023-07-22T10:43:32;11.48;;;4.88;;
48241;SDS011;34041;51.812;4.622;2023-07-22T10:46:36;11.45;;;5.80;;
48241;SDS011;34041;51.812;4.622;2023-07-22T10:49:46;11.73;;;4.45;;
48241;SDS011;34041;51.812;4.622;2023-07-22T10:52:47;7.10;;;4.35;;
48241;SDS011;34041;51.812;4.622;2023-07-22T10:59:03;9.90;;;4.20;;
48241;SDS011;34041;51.812;4.622;2023-07-22T11:02:05;7.80;;;3.70;;
48241;SDS011;34041;51.812;4.622;2023-07-22T11:05:07;9.80;;;3.42;;
48241;SDS011;34041;51.812;4.622;2023-07-22T11:08:11;6.95;;;3.40;;
48241;SDS011;34041;51.812;4.622;2023-07-22T11:11:11;5.10;;;3.53;;
48241;SDS011;34041;51.812;4.622;2023-07-22T11:14:20;9.93;;;3.47;;
48241;SDS011;34041;51.812;4.622;2023-07-22T11:17:30;8.45;;;3.75;;
48241;SDS011;34041;51.812;4.622;2023-07-22T11:20:31;7.55;;;3.72;;
48241;SDS011;34041;51.812;4.622;2023-07-22T11:23:32;9.60;;;3.57;;
48241;SDS011;34041;51.812;4.622;2023-07-22T11:26:33;9.75;;;4.22;;
48241;SDS011;34041;51.812;4.622;2023-07-22T11:29:34;7.88;;;4.97;;
48241;SDS011;34041;51.812;4.622;2023-07-22T11:32:35;4.25;;;3.53;;
48241;SDS011;34041;51.812;4.622;2023-07-22T11:35:35;7.20;;;3.77;;
48241;SDS011;34041;51.812;4.622;2023-07-22T11:38:35;6.53;;;3.90;;
48241;SDS011;34041;51.812;4.622;2023-07-22T11:41:37;8.27;;;4.40;;
48241;SDS011;34041;51.812;4.622;2023-07-22T11:44:38;8.23;;;4.20;;
48241;SDS011;34041;51.812;4.622;2023-07-22T11:47:38;9.38;;;4.10;;
48241;SDS011;34041;51.812;4.622;2023-07-22T11:50:38;6.75;;;3.70;;
48241;SDS011;34041;51.812;4.622;2023-07-22T11:53:38;10.17;;;3.97;;
48241;SDS011;34041;51.812;4.622;2023-07-22T11:56:39;8.17;;;4.03;;
48241;SDS011;34041;51.812;4.622;2023-07-22T11:59:42;9.15;;;3.40;;
48241;SDS011;34041;51.812;4.622;2023-07-22T12:02:43;7.80;;;3.28;;
48241;SDS011;34041;51.812;4.622;2023-07-22T12:05:43;4.43;;;3.03;;
48241;SDS011;34041;51.812;4.622;2023-07-22T12:08:44;6.20;;;2.50;;
48241;SDS011;34041;51.812;4.622;2023-07-22T12:11:45;8.98;;;2.97;;
48241;SDS011;34041;51.812;4.622;2023-07-22T12:14:45;5.90;;;2.40;;
48241;SDS011;34041;51.812;4.622;2023-07-22T12:20:48;4.78;;;2.00;;
48241;SDS011;34041;51.812;4.622;2023-07-22T12:23:49;4.37;;;2.03;;
48241;SDS011;34041;51.812;4.622;2023-07-22T12:26:49;6.20;;;2.50;;
48241;SDS011;34041;51.812;4.622;2023-07-22T12:29:49;3.07;;;1.80;;
48241;SDS011;34041;51.812;4.622;2023-07-22T12:32:49;4.83;;;2.30;;
48241;SDS011;34041;51.812;4.622;2023-07-22T12:35:50;5.03;;;2.10;;
48241;SDS011;34041;51.812;4.622;2023-07-22T12:38:50;5.22;;;1.63;;
48241;SDS011;34041;51.812;4.622;2023-07-22T12:41:50;4.13;;;1.67;;
48241;SDS011;34041;51.812;4.622;2023-07-22T12:44:51;3.00;;;1.60;;
48241;SDS011;34041;51.812;4.622;2023-07-22T12:47:51;3.10;;;1.58;;
48241;SDS011;34041;51.812;4.622;2023-07-22T12:50:51;9.17;;;2.10;;
48241;SDS011;34041;51.812;4.622;2023-07-22T12:53:51;6.80;;;2.05;;
48241;SDS011;34041;51.812;4.622;2023-07-22T12:56:52;3.67;;;1.57;;
48241;SDS011;34041;51.812;4.622;2023-07-22T12:59:52;3.97;;;1.73;;
48241;SDS011;34041;51.812;4.622;2023-07-22T13:02:52;4.78;;;1.88;;
48241;SDS011;34041;51.812;4.622;2023-07-22T13:05:52;8.00;;;1.97;;
48241;SDS011;34041;51.812;4.622;2023-07-22T13:08:53;5.27;;;2.07;;
48241;SDS011;34041;51.812;4.622;2023-07-22T13:11:53;5.53;;;2.13;;
48241;SDS011;34041;51.812;4.622;2023-07-22T13:14:53;4.87;;;2.40;;
48241;SDS011;34041;51.812;4.622;2023-07-22T13:17:53;6.15;;;2.67;;
48241;SDS011;34041;51.812;4.622;2023-07-22T13:20:54;3.73;;;2.00;;
48241;SDS011;34041;51.812;4.622;2023-07-22T13:23:54;4.95;;;2.53;;
48241;SDS011;34041;51.812;4.622;2023-07-22T13:26:54;10.90;;;2.60;;
48241;SDS011;34041;51.812;4.622;2023-07-22T13:29:54;4.43;;;2.13;;
48241;SDS011;34041;51.812;4.622;2023-07-22T13:32:55;7.53;;;2.53;;
48241;SDS011;34041;51.812;4.622;2023-07-22T13:35:56;3.30;;;1.70;;
48241;SDS011;34041;51.812;4.622;2023-07-22T13:38:56;6.47;;;2.33;;
48241;SDS011;34041;51.812;4.622;2023-07-22T13:41:56;6.17;;;2.17;;
48241;SDS011;34041;51.812;4.622;2023-07-22T13:44:57;5.73;;;2.10;;
48241;SDS011;34041;51.812;4.622;2023-07-22T13:47:57;3.37;;;2.07;;
48241;SDS011;34041;51.812;4.622;2023-07-22T13:50:57;3.97;;;2.37;;
48241;SDS011;34041;51.812;4.622;2023-07-22T13:53:57;5.97;;;3.08;;
48241;SDS011;34041;51.812;4.622;2023-07-22T13:56:58;5.80;;;3.03;;
48241;SDS011;34041;51.812;4.622;2023-07-22T13:59:58;7.03;;;2.70;;
48241;SDS011;34041;51.812;4.622;2023-07-22T14:02:59;5.03;;;2.60;;
48241;SDS011;34041;51.812;4.622;2023-07-22T14:06:00;4.38;;;2.67;;
48241;SDS011;34041;51.812;4.622;2023-07-22T14:09:00;8.37;;;3.57;;
48241;SDS011;34041;51.812;4.622;2023-07-22T14:12:01;4.43;;;3.17;;
48241;SDS011;34041;51.812;4.622;2023-07-22T14:15:02;9.32;;;3.90;;
48241;SDS011;34041;51.812;4.622;2023-07-22T14:18:04;8.75;;;3.28;;
48241;SDS011;34041;51.812;4.622;2023-07-22T14:21:04;6.73;;;2.90;;
48241;SDS011;34041;51.812;4.622;2023-07-22T14:24:04;4.13;;;2.50;;
48241;SDS011;34041;51.812;4.622;2023-07-22T14:27:05;6.27;;;3.23;;
48241;SDS011;34041;51.812;4.622;2023-07-22T14:30:05;6.13;;;2.65;;
48241;SDS011;34041;51.812;4.622;2023-07-22T14:33:06;5.95;;;3.45;;
48241;SDS011;34041;51.812;4.622;2023-07-22T14:36:06;6.53;;;2.50;;
48241;SDS011;34041;51.812;4.622;2023-07-22T14:39:06;6.60;;;2.70;;
48241;SDS011;34041;51.812;4.622;2023-07-22T14:42:08;4.45;;;2.53;;
48241;SDS011;34041;51.812;4.622;2023-07-22T14:45:08;4.30;;;2.10;;
48241;SDS011;34041;51.812;4.622;2023-07-22T14:48:08;6.63;;;3.00;;
48241;SDS011;34041;51.812;4.622;2023-07-22T14:51:09;5.33;;;3.03;;
48241;SDS011;34041;51.812;4.622;2023-07-22T14:54:09;7.30;;;2.97;;
48241;SDS011;34041;51.812;4.622;2023-07-22T14:57:09;3.13;;;1.83;;
48241;SDS011;34041;51.812;4.622;2023-07-22T15:00:09;6.03;;;2.90;;
48241;SDS011;34041;51.812;4.622;2023-07-22T15:03:10;7.28;;;2.78;;
48241;SDS011;34041;51.812;4.622;2023-07-22T15:06:10;4.47;;;2.75;;
48241;SDS011;34041;51.812;4.622;2023-07-22T15:09:11;8.37;;;2.83;;
48241;SDS011;34041;51.812;4.622;2023-07-22T15:12:11;8.13;;;3.73;;
48241;SDS011;34041;51.812;4.622;2023-07-22T15:15:12;9.13;;;3.03;;
48241;SDS011;34041;51.812;4.622;2023-07-22T15:18:12;6.30;;;3.40;;
48241;SDS011;34041;51.812;4.622;2023-07-22T15:21:12;8.57;;;3.63;;
48241;SDS011;34041;51.812;4.622;2023-07-22T15:24:12;4.40;;;2.93;;
48241;SDS011;34041;51.812;4.622;2023-07-22T15:27:13;5.87;;;3.17;;
48241;SDS011;34041;51.812;4.622;2023-07-22T15:30:13;4.97;;;2.53;;
48241;SDS011;34041;51.812;4.622;2023-07-22T15:33:13;8.47;;;2.60;;
48241;SDS011;34041;51.812;4.622;2023-07-22T15:36:13;8.17;;;3.13;;
48241;SDS011;34041;51.812;4.622;2023-07-22T15:39:14;7.30;;;2.83;;
48241;SDS011;34041;51.812;4.622;2023-07-22T15:42:15;7.03;;;2.33;;
48241;SDS011;34041;51.812;4.622;2023-07-22T15:45:15;5.30;;;2.35;;
48241;SDS011;34041;51.812;4.622;2023-07-22T15:48:15;4.57;;;2.53;;
48241;SDS011;34041;51.812;4.622;2023-07-22T15:51:15;7.07;;;2.60;;
48241;SDS011;34041;51.812;4.622;2023-07-22T15:54:16;7.55;;;2.80;;
48241;SDS011;34041;51.812;4.622;2023-07-22T15:57:16;5.10;;;2.80;;
48241;SDS011;34041;51.812;4.622;2023-07-22T16:00:16;7.93;;;2.57;;
48241;SDS011;34041;51.812;4.622;2023-07-22T16:03:17;4.60;;;2.17;;
48241;SDS011;34041;51.812;4.622;2023-07-22T16:06:17;5.15;;;1.88;;
48241;SDS011;34041;51.812;4.622;2023-07-22T16:09:18;6.88;;;2.40;;
48241;SDS011;34041;51.812;4.622;2023-07-22T16:12:18;4.70;;;2.53;;
48241;SDS011;34041;51.812;4.622;2023-07-22T16:15:18;6.03;;;2.70;;
48241;SDS011;34041;51.812;4.622;2023-07-22T16:18:18;7.07;;;2.50;;
48241;SDS011;34041;51.812;4.622;2023-07-22T16:21:19;4.77;;;2.30;;
48241;SDS011;34041;51.812;4.622;2023-07-22T16:24:19;4.82;;;2.90;;
48241;SDS011;34041;51.812;4.622;2023-07-22T16:27:19;5.57;;;2.63;;
48241;SDS011;34041;51.812;4.622;2023-07-22T16:30:20;6.53;;;2.30;;
48241;SDS011;34041;51.812;4.622;2023-07-22T16:33:20;6.88;;;2.90;;
48241;SDS011;34041;51.812;4.622;2023-07-22T16:36:21;9.65;;;2.63;;
48241;SDS011;34041;51.812;4.622;2023-07-22T16:39:21;6.27;;;3.20;;
48241;SDS011;34041;51.812;4.622;2023-07-22T16:42:22;5.95;;;2.63;;
48241;SDS011;34041;51.812;4.622;2023-07-22T16:45:22;8.55;;;2.75;;
48241;SDS011;34041;51.812;4.622;2023-07-22T16:48:22;7.95;;;2.28;;
48241;SDS011;34041;51.812;4.622;2023-07-22T16:51:22;7.67;;;2.70;;
48241;SDS011;34041;51.812;4.622;2023-07-22T16:54:23;7.05;;;2.97;;
48241;SDS011;34041;51.812;4.622;2023-07-22T16:57:23;7.97;;;2.93;;
48241;SDS011;34041;51.812;4.622;2023-07-22T17:00:23;7.50;;;2.53;;
48241;SDS011;34041;51.812;4.622;2023-07-22T17:03:24;4.72;;;2.35;;
48241;SDS011;34041;51.812;4.622;2023-07-22T17:06:24;7.43;;;2.70;;
48241;SDS011;34041;51.812;4.622;2023-07-22T17:09:24;10.33;;;2.90;;
48241;SDS011;34041;51.812;4.622;2023-07-22T17:12:25;6.90;;;2.57;;
48241;SDS011;34041;51.812;4.622;2023-07-22T17:15:25;5.03;;;2.50;;
48241;SDS011;34041;51.812;4.622;2023-07-22T17:18:25;6.47;;;2.40;;
48241;SDS011;34041;51.812;4.622;2023-07-22T17:21:25;7.43;;;3.03;;
48241;SDS011;34041;51.812;4.622;2023-07-22T17:24:25;6.63;;;2.43;;
48241;SDS011;34041;51.812;4.622;2023-07-22T17:27:26;5.10;;;2.90;;
48241;SDS011;34041;51.812;4.622;2023-07-22T17:30:26;7.33;;;3.30;;
48241;SDS011;34041;51.812;4.622;2023-07-22T17:33:26;6.20;;;3.03;;
48241;SDS011;34041;51.812;4.622;2023-07-22T17:36:27;11.65;;;3.13;;
48241;SDS011;34041;51.812;4.622;2023-07-22T17:39:27;6.50;;;2.95;;
48241;SDS011;34041;51.812;4.622;2023-07-22T17:42:27;6.63;;;2.80;;
48241;SDS011;34041;51.812;4.622;2023-07-22T17:45:28;7.43;;;3.20;;
48241;SDS011;34041;51.812;4.622;2023-07-22T17:48:28;9.63;;;2.83;;
48241;SDS011;34041;51.812;4.622;2023-07-22T17:51:28;11.77;;;2.67;;
48241;SDS011;34041;51.812;4.622;2023-07-22T17:54:28;4.80;;;2.83;;
48241;SDS011;34041;51.812;4.622;2023-07-22T17:57:29;5.28;;;2.47;;
48241;SDS011;34041;51.812;4.622;2023-07-22T18:00:29;5.03;;;2.97;;
48241;SDS011;34041;51.812;4.622;2023-07-22T18:03:29;4.05;;;2.58;;